createdAt,value
2022-08-25T00:00:02.308Z,8.13
2022-08-25T00:03:06.505Z,8.53
2022-08-25T00:06:11.043Z,8.93
2022-08-25T00:09:15.898Z,7.97
2022-08-25T00:12:18.857Z,9.87
2022-08-25T00:15:23.658Z,9.03
2022-08-25T00:18:26.629Z,9.00
2022-08-25T00:21:31.541Z,8.27
2022-08-25T00:24:34.559Z,10.10
2022-08-25T00:27:37.872Z,8.53
2022-08-25T00:30:42.243Z,8.67
2022-08-25T00:33:46.083Z,9.73
2022-08-25T00:36:50.765Z,8.73
2022-08-25T00:39:55.112Z,11.97
2022-08-25T00:42:57.953Z,10.63
2022-08-25T00:46:02.992Z,9.13
2022-08-25T00:49:14.695Z,8.57
2022-08-25T00:52:34.743Z,10.47
2022-08-25T00:55:41.657Z,13.83
2022-08-25T00:58:45.028Z,10.47
2022-08-25T01:01:55.253Z,9.03
2022-08-25T01:04:58.811Z,10.03
2022-08-25T01:08:06.675Z,9.73
2022-08-25T01:11:12.437Z,9.80
2022-08-25T01:14:18.099Z,9.93
2022-08-25T01:17:28.025Z,10.37
2022-08-25T01:20:34.692Z,9.20
2022-08-25T01:23:38.967Z,9.17
2022-08-25T01:26:41.833Z,10.30
2022-08-25T01:29:44.686Z,10.00
2022-08-25T01:32:47.549Z,9.90
2022-08-25T01:35:50.503Z,10.17
2022-08-25T01:38:55.321Z,12.67
2022-08-25T01:42:30.068Z,10.77
2022-08-25T01:45:33.149Z,9.40
2022-08-25T01:48:36.815Z,10.63
2022-08-25T01:51:45.243Z,9.87
2022-08-25T01:54:53.232Z,11.90
2022-08-25T01:57:56.797Z,11.23
2022-08-25T02:01:11.703Z,9.50
2022-08-25T02:04:14.589Z,10.83
2022-08-25T02:07:22.685Z,9.83
2022-08-25T02:10:26.910Z,10.90
2022-08-25T02:13:31.517Z,10.43
2022-08-25T02:16:38.324Z,11.03
2022-08-25T02:19:41.418Z,12.57
2022-08-25T02:22:45.005Z,11.00
2022-08-25T02:25:58.186Z,12.53
2022-08-25T02:29:01.548Z,10.93
2022-08-25T02:32:05.027Z,13.80
2022-08-25T02:35:09.823Z,12.10
2022-08-25T02:38:12.700Z,11.80
2022-08-25T02:41:20.966Z,12.67
2022-08-25T02:44:23.880Z,10.33
2022-08-25T02:47:27.020Z,11.40
2022-08-25T02:50:32.160Z,12.90
2022-08-25T02:53:35.930Z,12.03
2022-08-25T02:56:42.604Z,13.07
2022-08-25T02:59:48.478Z,11.70
2022-08-25T03:02:54.164Z,12.87
2022-08-25T03:05:57.375Z,13.10
2022-08-25T03:09:01.361Z,13.87
2022-08-25T03:12:06.514Z,12.83
2022-08-25T03:15:12.830Z,12.77
2022-08-25T03:18:16.492Z,13.40
2022-08-25T03:21:21.142Z,13.03
2022-08-25T03:24:24.086Z,12.93
2022-08-25T03:27:30.396Z,12.83
2022-08-25T03:30:33.311Z,12.20
2022-08-25T03:33:38.410Z,13.47
2022-08-25T03:36:41.754Z,11.30
2022-08-25T03:39:46.451Z,13.97
2022-08-25T03:42:51.120Z,13.73
2022-08-25T03:45:54.269Z,16.10
2022-08-25T03:48:58.164Z,13.87
2022-08-25T03:52:02.077Z,14.77
2022-08-25T03:55:14.503Z,14.30
2022-08-25T03:58:19.086Z,12.73
2022-08-25T04:01:22.136Z,13.67
2022-08-25T04:04:25.462Z,14.47
2022-08-25T04:07:28.552Z,14.27
2022-08-25T04:10:32.876Z,12.13
2022-08-25T04:13:37.882Z,16.33
2022-08-25T04:16:40.900Z,15.90
2022-08-25T04:19:43.858Z,16.33
2022-08-25T04:22:46.880Z,14.63
2022-08-25T04:25:49.710Z,16.30
2022-08-25T04:28:55.041Z,20.27
2022-08-25T04:31:57.949Z,18.40
2022-08-25T04:35:00.886Z,20.87
2022-08-25T04:38:04.329Z,25.00
2022-08-25T04:41:12.240Z,21.27
2022-08-25T04:44:19.325Z,22.33
2022-08-25T04:47:22.224Z,25.03
2022-08-25T04:50:25.532Z,20.10
2022-08-25T04:53:29.796Z,22.73
2022-08-25T04:56:33.850Z,26.53
2022-08-25T04:59:39.733Z,20.77
2022-08-25T05:02:42.565Z,20.67
2022-08-25T05:05:45.501Z,21.40
2022-08-25T05:08:48.409Z,20.93
2022-08-25T05:11:51.362Z,19.90
2022-08-25T05:14:55.667Z,20.90
2022-08-25T05:18:00.614Z,18.87
2022-08-25T05:21:05.343Z,18.23
2022-08-25T05:24:11.386Z,18.10
2022-08-25T05:27:14.230Z,17.73
2022-08-25T05:30:18.588Z,19.33
2022-08-25T05:33:30.630Z,18.27
2022-08-25T05:36:37.029Z,19.53
2022-08-25T05:39:39.942Z,21.17
2022-08-25T05:42:44.251Z,21.23
2022-08-25T05:45:48.557Z,19.83
2022-08-25T05:48:51.701Z,25.20
2022-08-25T05:51:54.664Z,21.47
2022-08-25T05:54:57.542Z,21.70
2022-08-25T05:58:02.300Z,19.03
2022-08-25T06:01:21.367Z,19.90
2022-08-25T06:04:24.437Z,20.23
2022-08-25T06:07:27.232Z,20.60
2022-08-25T06:10:30.430Z,19.80
2022-08-25T06:13:33.295Z,23.90
2022-08-25T06:16:38.577Z,24.23
2022-08-25T06:19:41.602Z,29.30
2022-08-25T06:22:44.564Z,26.73
2022-08-25T06:25:50.853Z,29.13
2022-08-25T06:28:54.162Z,31.17
2022-08-25T06:31:58.482Z,28.87
2022-08-25T06:35:03.629Z,28.77
2022-08-25T06:38:06.594Z,31.00
2022-08-25T06:41:12.421Z,32.17
2022-08-25T06:44:15.318Z,28.77
2022-08-25T06:47:20.563Z,29.30
2022-08-25T06:50:24.769Z,25.07
2022-08-25T06:53:28.390Z,26.63
2022-08-25T06:56:31.352Z,23.73
2022-08-25T06:59:34.667Z,22.20
2022-08-25T07:02:39.416Z,23.83
2022-08-25T07:05:43.845Z,24.27
2022-08-25T07:08:47.493Z,22.30
2022-08-25T07:11:50.312Z,19.73
2022-08-25T07:15:10.113Z,22.83
2022-08-25T07:18:17.415Z,26.10
2022-08-25T07:21:24.782Z,23.67
2022-08-25T07:24:31.771Z,22.87
2022-08-25T07:27:34.598Z,25.40
2022-08-25T07:30:37.448Z,25.83
2022-08-25T07:34:04.705Z,20.97
2022-08-25T07:37:17.346Z,23.77
2022-08-25T07:40:29.624Z,25.27
2022-08-25T07:43:32.943Z,24.87
2022-08-25T07:46:37.121Z,24.33
2022-08-25T07:49:41.884Z,25.17
2022-08-25T07:52:44.693Z,26.27
2022-08-25T07:55:58.561Z,30.27
2022-08-25T07:59:01.440Z,22.53
2022-08-25T08:02:04.401Z,30.10
2022-08-25T08:05:11.509Z,25.40
2022-08-25T08:08:14.742Z,24.37
2022-08-25T08:11:18.253Z,20.90
2022-08-25T08:14:21.788Z,23.53
2022-08-25T08:17:24.643Z,27.73
2022-08-25T08:20:31.382Z,22.47
2022-08-25T08:23:49.343Z,25.77
2022-08-25T08:26:59.135Z,26.17
2022-08-25T08:30:02.546Z,23.20
2022-08-25T08:33:10.041Z,24.07
2022-08-25T08:36:16.226Z,23.87
2022-08-25T08:39:19.426Z,19.33
2022-08-25T08:42:51.832Z,20.00
2022-08-25T08:45:54.789Z,19.03
2022-08-25T08:49:02.948Z,19.07
2022-08-25T08:52:20.554Z,17.60
2022-08-25T08:55:31.297Z,21.07
2022-08-25T08:58:43.021Z,16.70
2022-08-25T09:01:54.057Z,17.00
2022-08-25T09:05:02.416Z,21.80
2022-08-25T09:08:12.403Z,17.20
2022-08-25T09:11:27.772Z,16.87
2022-08-25T09:14:43.904Z,15.47
2022-08-25T09:18:14.036Z,18.97
2022-08-25T09:21:26.838Z,23.03
2022-08-25T09:24:41.329Z,13.93
2022-08-25T09:27:55.605Z,14.83
2022-08-25T09:31:01.635Z,19.53
2022-08-25T09:34:08.171Z,16.93
2022-08-25T09:37:11.173Z,22.50
2022-08-25T09:40:16.216Z,16.60
2022-08-25T09:43:24.568Z,15.20
2022-08-25T09:46:29.443Z,13.83
2022-08-25T09:49:36.224Z,14.20
2022-08-25T09:52:41.778Z,15.07
2022-08-25T09:55:48.380Z,12.53
2022-08-25T09:58:51.995Z,14.30
2022-08-25T10:01:57.974Z,13.50
2022-08-25T10:05:17.654Z,12.97
2022-08-25T10:08:31.448Z,11.80
2022-08-25T10:11:57.633Z,11.77
2022-08-25T10:15:00.970Z,13.50
2022-08-25T10:18:23.459Z,11.53
2022-08-25T10:21:29.082Z,11.97
2022-08-25T10:24:32.662Z,12.27
2022-08-25T10:27:46.338Z,12.87
2022-08-25T10:31:04.342Z,14.67
2022-08-25T10:34:31.215Z,11.90
2022-08-25T10:37:48.565Z,10.87
2022-08-25T10:40:57.774Z,12.07
2022-08-25T10:44:33.560Z,10.63
2022-08-25T10:47:52.388Z,10.27
2022-08-25T10:51:01.991Z,10.73
2022-08-25T10:54:12.877Z,12.07
2022-08-25T10:57:23.722Z,10.97
2022-08-25T11:00:35.180Z,15.70
2022-08-25T11:03:50.266Z,10.00
2022-08-25T11:07:00.323Z,11.47
2022-08-25T11:10:11.700Z,11.00
2022-08-25T11:13:20.493Z,13.53
2022-08-25T11:16:35.029Z,11.37
2022-08-25T11:19:44.167Z,13.73
2022-08-25T11:22:53.966Z,15.87
2022-08-25T11:26:01.588Z,17.83
2022-08-25T11:29:11.515Z,13.90
2022-08-25T11:32:22.826Z,10.60
2022-08-25T11:35:30.760Z,14.33
2022-08-25T11:38:47.885Z,11.63
2022-08-25T11:42:05.675Z,16.63
2022-08-25T11:45:23.765Z,9.80
2022-08-25T11:48:39.920Z,12.20
2022-08-25T11:51:48.379Z,17.53
2022-08-25T11:54:52.305Z,13.03
2022-08-25T11:58:18.174Z,14.27
2022-08-25T12:02:01.507Z,13.77
2022-08-25T12:05:33.249Z,15.10
2022-08-25T12:09:16.127Z,11.30
2022-08-25T12:12:31.944Z,14.30
2022-08-25T12:15:51.322Z,20.67
2022-08-25T12:19:28.758Z,15.50
2022-08-25T12:23:00.061Z,11.07
2022-08-25T12:26:11.156Z,14.90
2022-08-25T12:29:17.909Z,14.57
2022-08-25T12:32:50.168Z,9.40
2022-08-25T12:35:58.527Z,18.73
2022-08-25T12:39:24.478Z,16.77
2022-08-25T12:42:33.522Z,22.23
2022-08-25T12:45:43.823Z,9.83
2022-08-25T12:48:58.360Z,7.70
2022-08-25T12:52:07.340Z,11.55
2022-08-25T12:55:13.358Z,14.30
2022-08-25T12:58:16.977Z,13.45
2022-08-25T13:01:35.941Z,12.35
2022-08-25T13:05:02.626Z,15.43
2022-08-25T13:08:33.793Z,11.98
2022-08-25T13:11:43.239Z,12.17
2022-08-25T13:14:54.610Z,12.97
2022-08-25T13:18:13.335Z,10.80
2022-08-25T13:21:19.850Z,13.37
2022-08-25T13:24:29.654Z,11.93
2022-08-25T13:27:36.516Z,12.02
2022-08-25T13:30:40.085Z,11.23
2022-08-25T13:33:52.212Z,13.47
2022-08-25T13:37:15.540Z,14.67
2022-08-25T13:40:26.095Z,10.50
2022-08-25T13:43:30.773Z,10.77
2022-08-25T13:46:35.022Z,12.67
2022-08-25T13:49:39.664Z,8.50
2022-08-25T13:52:42.971Z,15.27
2022-08-25T13:55:52.288Z,13.83
2022-08-25T13:58:58.507Z,13.80
2022-08-25T14:02:01.708Z,11.32
2022-08-25T14:05:05.119Z,14.70
2022-08-25T14:08:31.876Z,13.70
2022-08-25T14:11:43.508Z,17.05
2022-08-25T14:15:03.537Z,8.50
2022-08-25T14:18:09.797Z,9.60
2022-08-25T14:21:20.366Z,9.17
2022-08-25T14:24:24.752Z,9.50
2022-08-25T14:27:31.989Z,7.60
2022-08-25T14:30:45.993Z,18.55
2022-08-25T14:33:54.946Z,15.75
2022-08-25T14:36:59.889Z,14.73
2022-08-25T14:40:02.863Z,10.95
2022-08-25T14:43:09.495Z,12.88
2022-08-25T14:46:19.551Z,14.02
2022-08-25T14:49:26.996Z,15.88
2022-08-25T14:52:31.476Z,11.70
2022-08-25T14:55:34.347Z,12.88
2022-08-25T14:58:51.005Z,9.70
2022-08-25T15:02:08.137Z,11.40
2022-08-25T15:05:13.405Z,8.45
2022-08-25T15:08:34.804Z,11.48
2022-08-25T15:11:41.670Z,10.73
2022-08-25T15:14:44.777Z,11.65
2022-08-25T15:17:50.747Z,12.75
2022-08-25T15:20:53.802Z,12.15
2022-08-25T15:23:59.241Z,12.27
2022-08-25T15:27:05.618Z,13.25
2022-08-25T15:30:19.517Z,11.52
2022-08-25T15:33:23.809Z,15.13
2022-08-25T15:36:27.349Z,10.23
2022-08-25T15:39:30.309Z,9.02
2022-08-25T15:42:33.505Z,10.90
2022-08-25T15:45:37.328Z,9.43
2022-08-25T15:48:42.297Z,9.47
2022-08-25T15:51:45.834Z,20.77
2022-08-25T15:54:51.225Z,11.63
2022-08-25T15:57:54.173Z,10.73
2022-08-25T16:01:00.916Z,11.63
2022-08-25T16:04:05.402Z,10.70
2022-08-25T16:07:08.762Z,17.67
2022-08-25T16:10:16.506Z,16.00
2022-08-25T16:13:19.389Z,15.03
2022-08-25T16:16:23.783Z,14.43
2022-08-25T16:19:38.226Z,12.93
2022-08-25T16:22:43.440Z,11.07
2022-08-25T16:25:48.286Z,20.03
2022-08-25T16:28:51.547Z,23.47
2022-08-25T16:31:55.160Z,13.23
2022-08-25T16:35:01.157Z,12.93
2022-08-25T16:38:04.604Z,19.13
2022-08-25T16:41:08.895Z,19.30
2022-08-25T16:44:11.990Z,17.43
2022-08-25T16:47:17.775Z,23.00
2022-08-25T16:50:24.768Z,18.87
2022-08-25T16:53:45.980Z,27.07
2022-08-25T16:56:54.645Z,18.97
2022-08-25T16:59:57.853Z,16.10
2022-08-25T17:03:04.889Z,18.83
2022-08-25T17:06:09.604Z,27.00
2022-08-25T17:09:17.388Z,16.83
2022-08-25T17:12:26.008Z,15.67
2022-08-25T17:15:28.819Z,14.63
2022-08-25T17:18:32.221Z,23.90
2022-08-25T17:21:40.400Z,19.67
2022-08-25T17:24:59.241Z,18.27
2022-08-25T17:28:05.033Z,17.30
2022-08-25T17:31:08.642Z,19.07
2022-08-25T17:34:16.507Z,16.90
2022-08-25T17:37:21.208Z,24.57
2022-08-25T17:40:24.919Z,15.90
2022-08-25T17:43:31.568Z,19.57
2022-08-25T17:46:34.592Z,19.47
2022-08-25T17:49:37.465Z,22.57
2022-08-25T17:52:41.809Z,15.37
2022-08-25T17:55:45.930Z,21.93
2022-08-25T17:58:50.034Z,17.57
2022-08-25T18:01:55.587Z,18.80
2022-08-25T18:05:00.448Z,19.57
2022-08-25T18:08:05.580Z,22.67
2022-08-25T18:11:14.368Z,19.90
2022-08-25T18:14:25.210Z,16.33
2022-08-25T18:17:29.127Z,20.07
2022-08-25T18:20:32.234Z,18.67
2022-08-25T18:23:36.485Z,18.63
2022-08-25T18:26:40.820Z,14.07
2022-08-25T18:30:03.267Z,22.67
2022-08-25T18:33:06.360Z,15.33
2022-08-25T18:36:09.241Z,22.27
2022-08-25T18:39:34.529Z,15.47
2022-08-25T18:42:38.471Z,12.40
2022-08-25T18:45:43.789Z,12.63
2022-08-25T18:48:47.450Z,19.63
2022-08-25T18:51:50.872Z,15.40
2022-08-25T18:54:55.073Z,13.70
2022-08-25T18:57:58.883Z,14.27
2022-08-25T19:01:01.986Z,19.17
2022-08-25T19:04:05.737Z,17.20
2022-08-25T19:07:09.929Z,12.10
2022-08-25T19:10:14.165Z,16.47
2022-08-25T19:13:17.573Z,11.47
2022-08-25T19:16:34.561Z,15.83
2022-08-25T19:19:37.429Z,12.23
2022-08-25T19:22:42.069Z,13.70
2022-08-25T19:25:47.059Z,11.90
2022-08-25T19:28:52.650Z,12.07
2022-08-25T19:31:57.255Z,13.33
2022-08-25T19:35:04.352Z,13.20
2022-08-25T19:38:33.549Z,16.30
2022-08-25T19:41:34.585Z,10.67
2022-08-25T19:44:39.062Z,15.23
2022-08-25T19:47:44.687Z,12.57
2022-08-25T19:50:47.692Z,12.07
2022-08-25T19:54:01.555Z,12.70
2022-08-25T19:57:11.134Z,14.60
2022-08-25T20:00:18.861Z,11.50
2022-08-25T20:03:22.189Z,15.97
2022-08-25T20:06:27.749Z,11.33
2022-08-25T20:09:38.951Z,14.70
2022-08-25T20:12:45.415Z,11.87
2022-08-25T20:15:48.417Z,14.93
2022-08-25T20:18:53.836Z,11.73
2022-08-25T20:21:57.632Z,11.90
2022-08-25T20:25:03.331Z,16.13
2022-08-25T20:28:24.942Z,12.80
2022-08-25T20:31:27.871Z,12.00
2022-08-25T20:34:32.564Z,17.90
2022-08-25T20:37:36.756Z,14.67
2022-08-25T20:40:42.093Z,14.77
2022-08-25T20:43:49.280Z,13.13
2022-08-25T20:46:52.176Z,11.27
2022-08-25T20:50:02.259Z,11.13
2022-08-25T20:53:10.158Z,12.07
2022-08-25T20:56:18.091Z,14.50
2022-08-25T20:59:22.608Z,11.57
2022-08-25T21:02:26.635Z,11.27
2022-08-25T21:05:29.596Z,10.97
2022-08-25T21:08:46.694Z,11.27
2022-08-25T21:11:51.297Z,12.13
2022-08-25T21:14:55.973Z,17.50
2022-08-25T21:18:00.061Z,12.77
2022-08-25T21:21:11.190Z,10.47
2022-08-25T21:24:24.059Z,10.97
2022-08-25T21:27:26.961Z,10.47
2022-08-25T21:30:32.996Z,13.27
2022-08-25T21:33:38.070Z,11.10
2022-08-25T21:36:42.220Z,10.70
2022-08-25T21:39:45.068Z,15.70
2022-08-25T21:42:48.362Z,13.27
2022-08-25T21:45:53.698Z,11.83
2022-08-25T21:49:06.522Z,12.43
2022-08-25T21:52:11.774Z,11.53
2022-08-25T21:55:16.257Z,15.33
2022-08-25T21:58:19.959Z,12.17
2022-08-25T22:01:24.241Z,14.67
2022-08-25T22:04:28.165Z,10.70
2022-08-25T22:07:34.263Z,13.43
2022-08-25T22:10:44.369Z,11.47
2022-08-25T22:13:48.627Z,11.73
2022-08-25T22:16:55.200Z,12.13
2022-08-25T22:19:58.217Z,11.47
2022-08-25T22:23:01.162Z,10.30
2022-08-25T22:26:04.678Z,11.67
2022-08-25T22:29:07.609Z,11.73
2022-08-25T22:32:13.483Z,12.10
2022-08-25T22:35:18.486Z,11.43
2022-08-25T22:38:22.767Z,11.73
2022-08-25T22:41:28.896Z,13.50
2022-08-25T22:44:32.199Z,17.87
2022-08-25T22:47:36.493Z,12.13
2022-08-25T22:50:40.252Z,15.13
2022-08-25T22:53:45.182Z,11.80
2022-08-25T22:56:54.494Z,15.33
2022-08-25T22:59:59.235Z,11.50
2022-08-25T23:03:03.485Z,11.77
2022-08-25T23:06:14.429Z,12.70
2022-08-25T23:09:17.615Z,13.40
2022-08-25T23:12:20.794Z,22.27
2022-08-25T23:15:25.348Z,13.60
2022-08-25T23:18:44.675Z,11.57
2022-08-25T23:22:05.056Z,11.27
2022-08-25T23:25:09.469Z,14.07
2022-08-25T23:28:13.459Z,16.33
2022-08-25T23:31:17.812Z,14.93
2022-08-25T23:34:28.720Z,15.13
2022-08-25T23:37:31.708Z,13.27
2022-08-25T23:40:34.964Z,16.03
2022-08-25T23:43:38.806Z,16.17
2022-08-25T23:46:44.439Z,11.10
2022-08-25T23:49:49.099Z,12.47
2022-08-25T23:52:52.091Z,11.30
2022-08-25T23:55:55.615Z,19.63
2022-08-25T23:58:58.534Z,18.07
